sensor_id;sensor_type;location;lat;lon;timestamp;P1;durP1;ratioP1;P2;durP2;ratioP2
31298;SDS011;17927;52.350;13.402;2023-05-07T00:02:12;8.35;;;7.43;;
31298;SDS011;17927;52.350;13.402;2023-05-07T00:04:37;8.82;;;7.90;;
31298;SDS011;17927;52.350;13.402;2023-05-07T00:07:03;9.23;;;8.15;;
31298;SDS011;17927;52.350;13.402;2023-05-07T00:09:29;13.23;;;7.85;;
31298;SDS011;17927;52.350;13.402;2023-05-07T00:11:54;9.13;;;7.03;;
31298;SDS011;17927;52.350;13.402;2023-05-07T00:14:19;9.27;;;8.38;;
31298;SDS011;17927;52.350;13.402;2023-05-07T00:16:45;10.80;;;8.10;;
31298;SDS011;17927;52.350;13.402;2023-05-07T00:19:11;8.10;;;7.38;;
31298;SDS011;17927;52.350;13.402;2023-05-07T00:21:36;8.25;;;7.28;;
31298;SDS011;17927;52.350;13.402;2023-05-07T00:24:01;8.75;;;7.63;;
31298;SDS011;17927;52.350;13.402;2023-05-07T00:26:26;9.15;;;8.02;;
31298;SDS011;17927;52.350;13.402;2023-05-07T00:28:52;8.48;;;7.68;;
31298;SDS011;17927;52.350;13.402;2023-05-07T00:31:17;9.85;;;7.97;;
31298;SDS011;17927;52.350;13.402;2023-05-07T00:33:42;9.18;;;8.15;;
31298;SDS011;17927;52.350;13.402;2023-05-07T00:36:07;9.57;;;7.68;;
31298;SDS011;17927;52.350;13.402;2023-05-07T00:38:33;8.85;;;8.07;;
31298;SDS011;17927;52.350;13.402;2023-05-07T00:40:58;10.95;;;7.78;;
31298;SDS011;17927;52.350;13.402;2023-05-07T00:43:23;10.90;;;8.10;;
31298;SDS011;17927;52.350;13.402;2023-05-07T00:45:48;8.07;;;7.28;;
31298;SDS011;17927;52.350;13.402;2023-05-07T00:48:14;7.85;;;7.13;;
31298;SDS011;17927;52.350;13.402;2023-05-07T00:50:40;13.13;;;7.63;;
31298;SDS011;17927;52.350;13.402;2023-05-07T00:53:06;8.38;;;7.63;;
31298;SDS011;17927;52.350;13.402;2023-05-07T00:55:31;8.32;;;7.55;;
31298;SDS011;17927;52.350;13.402;2023-05-07T00:57:57;9.18;;;7.25;;
31298;SDS011;17927;52.350;13.402;2023-05-07T01:00:22;7.57;;;6.95;;
31298;SDS011;17927;52.350;13.402;2023-05-07T01:02:47;7.80;;;7.07;;
31298;SDS011;17927;52.350;13.402;2023-05-07T01:05:14;8.30;;;7.60;;
31298;SDS011;17927;52.350;13.402;2023-05-07T01:07:42;6.95;;;6.32;;
31298;SDS011;17927;52.350;13.402;2023-05-07T01:10:08;7.03;;;6.43;;
31298;SDS011;17927;52.350;13.402;2023-05-07T01:12:34;9.23;;;6.90;;
31298;SDS011;17927;52.350;13.402;2023-05-07T01:15:02;7.43;;;6.60;;
31298;SDS011;17927;52.350;13.402;2023-05-07T01:17:28;6.88;;;6.38;;
31298;SDS011;17927;52.350;13.402;2023-05-07T01:19:53;6.75;;;6.07;;
31298;SDS011;17927;52.350;13.402;2023-05-07T01:22:26;7.55;;;6.05;;
31298;SDS011;17927;52.350;13.402;2023-05-07T01:25:04;6.85;;;6.07;;
31298;SDS011;17927;52.350;13.402;2023-05-07T01:27:30;6.90;;;5.80;;
31298;SDS011;17927;52.350;13.402;2023-05-07T01:29:55;6.10;;;5.50;;
31298;SDS011;17927;52.350;13.402;2023-05-07T01:32:23;8.82;;;6.05;;
31298;SDS011;17927;52.350;13.402;2023-05-07T01:34:57;6.65;;;6.05;;
31298;SDS011;17927;52.350;13.402;2023-05-07T01:37:23;9.65;;;6.00;;
31298;SDS011;17927;52.350;13.402;2023-05-07T01:39:49;7.93;;;6.15;;
31298;SDS011;17927;52.350;13.402;2023-05-07T01:42:15;6.82;;;6.20;;
31298;SDS011;17927;52.350;13.402;2023-05-07T01:44:40;6.95;;;6.20;;
31298;SDS011;17927;52.350;13.402;2023-05-07T01:47:06;6.18;;;5.63;;
31298;SDS011;17927;52.350;13.402;2023-05-07T01:49:31;12.82;;;7.47;;
31298;SDS011;17927;52.350;13.402;2023-05-07T01:51:57;7.78;;;6.38;;
31298;SDS011;17927;52.350;13.402;2023-05-07T01:54:26;6.88;;;6.22;;
31298;SDS011;17927;52.350;13.402;2023-05-07T01:56:57;9.90;;;6.90;;
31298;SDS011;17927;52.350;13.402;2023-05-07T01:59:22;7.72;;;6.82;;
31298;SDS011;17927;52.350;13.402;2023-05-07T02:01:48;9.93;;;6.82;;
31298;SDS011;17927;52.350;13.402;2023-05-07T02:04:13;9.00;;;6.95;;
31298;SDS011;17927;52.350;13.402;2023-05-07T02:06:38;7.13;;;6.22;;
31298;SDS011;17927;52.350;13.402;2023-05-07T02:09:04;7.35;;;6.43;;
31298;SDS011;17927;52.350;13.402;2023-05-07T02:11:29;8.00;;;6.07;;
31298;SDS011;17927;52.350;13.402;2023-05-07T02:13:55;6.93;;;6.03;;
31298;SDS011;17927;52.350;13.402;2023-05-07T02:16:20;6.78;;;6.07;;
31298;SDS011;17927;52.350;13.402;2023-05-07T02:18:46;7.55;;;6.00;;
31298;SDS011;17927;52.350;13.402;2023-05-07T02:21:11;5.93;;;5.47;;
31298;SDS011;17927;52.350;13.402;2023-05-07T02:23:36;6.10;;;5.60;;
31298;SDS011;17927;52.350;13.402;2023-05-07T02:26:03;8.93;;;5.45;;
31298;SDS011;17927;52.350;13.402;2023-05-07T02:28:29;5.97;;;5.55;;
31298;SDS011;17927;52.350;13.402;2023-05-07T02:30:54;6.57;;;5.93;;
31298;SDS011;17927;52.350;13.402;2023-05-07T02:33:19;7.45;;;5.32;;
31298;SDS011;17927;52.350;13.402;2023-05-07T02:35:45;6.30;;;5.28;;
31298;SDS011;17927;52.350;13.402;2023-05-07T02:38:10;5.80;;;5.40;;
31298;SDS011;17927;52.350;13.402;2023-05-07T02:40:36;6.45;;;5.82;;
31298;SDS011;17927;52.350;13.402;2023-05-07T02:43:04;7.72;;;6.93;;
31298;SDS011;17927;52.350;13.402;2023-05-07T02:45:30;7.75;;;5.30;;
31298;SDS011;17927;52.350;13.402;2023-05-07T02:47:55;7.93;;;6.53;;
31298;SDS011;17927;52.350;13.402;2023-05-07T02:50:20;6.20;;;5.70;;
31298;SDS011;17927;52.350;13.402;2023-05-07T02:52:46;8.52;;;6.32;;
31298;SDS011;17927;52.350;13.402;2023-05-07T02:55:12;6.72;;;6.00;;
31298;SDS011;17927;52.350;13.402;2023-05-07T02:57:37;6.82;;;6.22;;
31298;SDS011;17927;52.350;13.402;2023-05-07T03:02:38;8.18;;;6.90;;
31298;SDS011;17927;52.350;13.402;2023-05-07T03:05:04;8.18;;;6.72;;
31298;SDS011;17927;52.350;13.402;2023-05-07T03:07:29;7.53;;;6.65;;
31298;SDS011;17927;52.350;13.402;2023-05-07T03:09:55;8.93;;;6.85;;
31298;SDS011;17927;52.350;13.402;2023-05-07T03:12:20;11.35;;;6.70;;
31298;SDS011;17927;52.350;13.402;2023-05-07T03:14:45;7.40;;;6.70;;
31298;SDS011;17927;52.350;13.402;2023-05-07T03:17:11;7.45;;;6.30;;
31298;SDS011;17927;52.350;13.402;2023-05-07T03:19:36;7.28;;;6.28;;
31298;SDS011;17927;52.350;13.402;2023-05-07T03:22:01;7.10;;;6.40;;
31298;SDS011;17927;52.350;13.402;2023-05-07T03:24:26;7.30;;;6.65;;
31298;SDS011;17927;52.350;13.402;2023-05-07T03:26:51;7.22;;;6.53;;
31298;SDS011;17927;52.350;13.402;2023-05-07T03:29:17;6.97;;;6.38;;
31298;SDS011;17927;52.350;13.402;2023-05-07T03:31:42;8.90;;;6.28;;
31298;SDS011;17927;52.350;13.402;2023-05-07T03:34:07;9.00;;;7.20;;
31298;SDS011;17927;52.350;13.402;2023-05-07T03:36:33;7.15;;;6.50;;
31298;SDS011;17927;52.350;13.402;2023-05-07T03:38:58;8.50;;;7.13;;
31298;SDS011;17927;52.350;13.402;2023-05-07T03:41:23;10.57;;;7.25;;
31298;SDS011;17927;52.350;13.402;2023-05-07T03:43:48;7.93;;;7.22;;
31298;SDS011;17927;52.350;13.402;2023-05-07T03:46:13;8.77;;;6.78;;
31298;SDS011;17927;52.350;13.402;2023-05-07T03:48:39;7.43;;;6.72;;
31298;SDS011;17927;52.350;13.402;2023-05-07T03:51:04;7.20;;;6.70;;
31298;SDS011;17927;52.350;13.402;2023-05-07T03:53:29;6.70;;;5.90;;
31298;SDS011;17927;52.350;13.402;2023-05-07T03:55:55;7.43;;;6.22;;
31298;SDS011;17927;52.350;13.402;2023-05-07T03:58:20;8.75;;;6.65;;
31298;SDS011;17927;52.350;13.402;2023-05-07T04:00:45;7.88;;;6.43;;
31298;SDS011;17927;52.350;13.402;2023-05-07T04:03:10;7.85;;;6.15;;
31298;SDS011;17927;52.350;13.402;2023-05-07T04:05:36;8.95;;;6.90;;
31298;SDS011;17927;52.350;13.402;2023-05-07T04:08:01;8.05;;;6.68;;
31298;SDS011;17927;52.350;13.402;2023-05-07T04:10:27;6.90;;;5.80;;
31298;SDS011;17927;52.350;13.402;2023-05-07T04:12:53;7.63;;;6.32;;
31298;SDS011;17927;52.350;13.402;2023-05-07T04:15:18;6.72;;;6.03;;
31298;SDS011;17927;52.350;13.402;2023-05-07T04:17:44;6.47;;;5.88;;
31298;SDS011;17927;52.350;13.402;2023-05-07T04:20:09;6.88;;;6.18;;
31298;SDS011;17927;52.350;13.402;2023-05-07T04:22:35;7.25;;;6.45;;
31298;SDS011;17927;52.350;13.402;2023-05-07T04:25:01;7.68;;;6.93;;
31298;SDS011;17927;52.350;13.402;2023-05-07T04:27:27;7.28;;;6.57;;
31298;SDS011;17927;52.350;13.402;2023-05-07T04:29:52;10.27;;;7.20;;
31298;SDS011;17927;52.350;13.402;2023-05-07T04:32:20;10.63;;;6.55;;
31298;SDS011;17927;52.350;13.402;2023-05-07T04:34:46;7.07;;;6.47;;
31298;SDS011;17927;52.350;13.402;2023-05-07T04:37:11;8.20;;;6.68;;
31298;SDS011;17927;52.350;13.402;2023-05-07T04:39:37;9.40;;;8.00;;
31298;SDS011;17927;52.350;13.402;2023-05-07T04:42:02;7.35;;;6.75;;
31298;SDS011;17927;52.350;13.402;2023-05-07T04:44:28;7.65;;;6.18;;
31298;SDS011;17927;52.350;13.402;2023-05-07T04:46:55;7.43;;;6.30;;
31298;SDS011;17927;52.350;13.402;2023-05-07T04:49:21;7.00;;;6.40;;
31298;SDS011;17927;52.350;13.402;2023-05-07T04:51:46;7.07;;;6.43;;
31298;SDS011;17927;52.350;13.402;2023-05-07T04:54:11;7.00;;;6.40;;
31298;SDS011;17927;52.350;13.402;2023-05-07T04:56:37;7.22;;;6.45;;
31298;SDS011;17927;52.350;13.402;2023-05-07T04:59:02;6.97;;;6.28;;
31298;SDS011;17927;52.350;13.402;2023-05-07T05:01:27;7.22;;;6.53;;
31298;SDS011;17927;52.350;13.402;2023-05-07T05:03:52;12.00;;;6.28;;
31298;SDS011;17927;52.350;13.402;2023-05-07T05:06:18;7.78;;;6.15;;
31298;SDS011;17927;52.350;13.402;2023-05-07T05:08:43;7.25;;;6.13;;
31298;SDS011;17927;52.350;13.402;2023-05-07T05:11:08;6.80;;;6.13;;
31298;SDS011;17927;52.350;13.402;2023-05-07T05:13:33;7.82;;;6.15;;
31298;SDS011;17927;52.350;13.402;2023-05-07T05:15:59;7.47;;;6.22;;
31298;SDS011;17927;52.350;13.402;2023-05-07T05:18:24;5.70;;;5.28;;
31298;SDS011;17927;52.350;13.402;2023-05-07T05:20:51;6.25;;;5.68;;
31298;SDS011;17927;52.350;13.402;2023-05-07T05:23:16;6.75;;;5.85;;
31298;SDS011;17927;52.350;13.402;2023-05-07T05:25:42;6.75;;;5.60;;
31298;SDS011;17927;52.350;13.402;2023-05-07T05:28:07;6.53;;;5.68;;
31298;SDS011;17927;52.350;13.402;2023-05-07T05:30:32;6.55;;;5.30;;
31298;SDS011;17927;52.350;13.402;2023-05-07T05:32:57;5.38;;;4.95;;
31298;SDS011;17927;52.350;13.402;2023-05-07T05:35:23;5.95;;;5.25;;
31298;SDS011;17927;52.350;13.402;2023-05-07T05:37:48;5.97;;;5.45;;
31298;SDS011;17927;52.350;13.402;2023-05-07T05:40:13;5.57;;;5.18;;
31298;SDS011;17927;52.350;13.402;2023-05-07T05:42:38;5.05;;;4.55;;
31298;SDS011;17927;52.350;13.402;2023-05-07T05:45:04;5.75;;;5.25;;
31298;SDS011;17927;52.350;13.402;2023-05-07T05:47:29;5.63;;;5.13;;
31298;SDS011;17927;52.350;13.402;2023-05-07T05:49:55;6.10;;;5.28;;
31298;SDS011;17927;52.350;13.402;2023-05-07T05:52:20;5.90;;;5.30;;
31298;SDS011;17927;52.350;13.402;2023-05-07T05:54:48;5.78;;;5.18;;
31298;SDS011;17927;52.350;13.402;2023-05-07T05:57:13;6.63;;;5.30;;
31298;SDS011;17927;52.350;13.402;2023-05-07T05:59:39;5.45;;;4.68;;
31298;SDS011;17927;52.350;13.402;2023-05-07T06:02:04;6.10;;;4.78;;
31298;SDS011;17927;52.350;13.402;2023-05-07T06:04:30;5.28;;;4.85;;
31298;SDS011;17927;52.350;13.402;2023-05-07T06:06:55;6.10;;;5.07;;
31298;SDS011;17927;52.350;13.402;2023-05-07T06:09:21;5.80;;;4.50;;
31298;SDS011;17927;52.350;13.402;2023-05-07T06:11:46;5.57;;;5.07;;
31298;SDS011;17927;52.350;13.402;2023-05-07T06:14:12;4.65;;;4.25;;
31298;SDS011;17927;52.350;13.402;2023-05-07T06:16:37;4.03;;;3.72;;
31298;SDS011;17927;52.350;13.402;2023-05-07T06:19:03;4.80;;;4.40;;
31298;SDS011;17927;52.350;13.402;2023-05-07T06:21:28;4.40;;;3.97;;
31298;SDS011;17927;52.350;13.402;2023-05-07T06:23:53;4.07;;;3.80;;
31298;SDS011;17927;52.350;13.402;2023-05-07T06:26:19;4.95;;;3.85;;
31298;SDS011;17927;52.350;13.402;2023-05-07T06:28:45;4.40;;;4.05;;
31298;SDS011;17927;52.350;13.402;2023-05-07T06:31:20;4.38;;;3.67;;
31298;SDS011;17927;52.350;13.402;2023-05-07T06:33:45;4.70;;;4.40;;
31298;SDS011;17927;52.350;13.402;2023-05-07T06:36:12;4.47;;;4.18;;
31298;SDS011;17927;52.350;13.402;2023-05-07T06:38:37;5.15;;;4.63;;
31298;SDS011;17927;52.350;13.402;2023-05-07T06:41:02;9.85;;;8.65;;
31298;SDS011;17927;52.350;13.402;2023-05-07T06:43:28;7.40;;;6.63;;
31298;SDS011;17927;52.350;13.402;2023-05-07T06:45:53;17.20;;;11.35;;
31298;SDS011;17927;52.350;13.402;2023-05-07T06:48:18;8.65;;;7.75;;
31298;SDS011;17927;52.350;13.402;2023-05-07T06:50:43;17.70;;;13.68;;
31298;SDS011;17927;52.350;13.402;2023-05-07T06:53:09;7.38;;;6.03;;
31298;SDS011;17927;52.350;13.402;2023-05-07T06:55:34;5.68;;;5.03;;
31298;SDS011;17927;52.350;13.402;2023-05-07T06:57:59;4.93;;;4.53;;
31298;SDS011;17927;52.350;13.402;2023-05-07T07:00:26;5.03;;;4.45;;
31298;SDS011;17927;52.350;13.402;2023-05-07T07:02:52;5.03;;;4.00;;
31298;SDS011;17927;52.350;13.402;2023-05-07T07:05:18;4.90;;;4.50;;
31298;SDS011;17927;52.350;13.402;2023-05-07T07:07:43;4.50;;;4.10;;
31298;SDS011;17927;52.350;13.402;2023-05-07T07:10:09;6.07;;;4.55;;
31298;SDS011;17927;52.350;13.402;2023-05-07T07:12:34;4.75;;;4.28;;
31298;SDS011;17927;52.350;13.402;2023-05-07T07:14:59;5.05;;;4.65;;
31298;SDS011;17927;52.350;13.402;2023-05-07T07:17:25;5.05;;;4.65;;
31298;SDS011;17927;52.350;13.402;2023-05-07T07:19:50;5.10;;;4.07;;
31298;SDS011;17927;52.350;13.402;2023-05-07T07:22:16;8.90;;;4.85;;
31298;SDS011;17927;52.350;13.402;2023-05-07T07:24:41;4.53;;;4.03;;
31298;SDS011;17927;52.350;13.402;2023-05-07T07:27:06;5.38;;;4.78;;
31298;SDS011;17927;52.350;13.402;2023-05-07T07:29:31;4.70;;;4.15;;
31298;SDS011;17927;52.350;13.402;2023-05-07T07:31:57;6.05;;;4.60;;
31298;SDS011;17927;52.350;13.402;2023-05-07T07:34:22;4.82;;;4.38;;
31298;SDS011;17927;52.350;13.402;2023-05-07T07:36:47;4.10;;;3.80;;
31298;SDS011;17927;52.350;13.402;2023-05-07T07:39:13;3.97;;;3.65;;
31298;SDS011;17927;52.350;13.402;2023-05-07T07:41:38;11.88;;;9.65;;
31298;SDS011;17927;52.350;13.402;2023-05-07T07:44:03;5.30;;;4.75;;
31298;SDS011;17927;52.350;13.402;2023-05-07T07:46:32;5.47;;;4.97;;
31298;SDS011;17927;52.350;13.402;2023-05-07T07:48:57;3.67;;;3.38;;
31298;SDS011;17927;52.350;13.402;2023-05-07T07:51:24;3.67;;;3.13;;
31298;SDS011;17927;52.350;13.402;2023-05-07T07:53:50;5.18;;;3.13;;
31298;SDS011;17927;52.350;13.402;2023-05-07T07:56:15;4.03;;;3.25;;
31298;SDS011;17927;52.350;13.402;2023-05-07T07:58:40;5.43;;;3.72;;
31298;SDS011;17927;52.350;13.402;2023-05-07T08:01:05;3.95;;;3.10;;
31298;SDS011;17927;52.350;13.402;2023-05-07T08:03:30;3.10;;;2.90;;
31298;SDS011;17927;52.350;13.402;2023-05-07T08:05:57;3.65;;;3.30;;
31298;SDS011;17927;52.350;13.402;2023-05-07T08:08:22;2.80;;;2.60;;
31298;SDS011;17927;52.350;13.402;2023-05-07T08:10:47;3.92;;;3.47;;
31298;SDS011;17927;52.350;13.402;2023-05-07T08:13:14;2.80;;;2.60;;
31298;SDS011;17927;52.350;13.402;2023-05-07T08:15:40;4.63;;;2.50;;
31298;SDS011;17927;52.350;13.402;2023-05-07T08:18:05;2.70;;;2.50;;
31298;SDS011;17927;52.350;13.402;2023-05-07T08:20:30;5.68;;;2.80;;
31298;SDS011;17927;52.350;13.402;2023-05-07T08:22:55;2.85;;;2.65;;
31298;SDS011;17927;52.350;13.402;2023-05-07T08:25:21;2.60;;;2.45;;
31298;SDS011;17927;52.350;13.402;2023-05-07T08:27:46;2.70;;;2.50;;
31298;SDS011;17927;52.350;13.402;2023-05-07T08:30:11;3.22;;;2.60;;
31298;SDS011;17927;52.350;13.402;2023-05-07T08:32:37;4.18;;;2.50;;
31298;SDS011;17927;52.350;13.402;2023-05-07T08:35:02;2.75;;;2.55;;
31298;SDS011;17927;52.350;13.402;2023-05-07T08:37:28;3.25;;;2.35;;
31298;SDS011;17927;52.350;13.402;2023-05-07T08:39:53;2.00;;;1.90;;
31298;SDS011;17927;52.350;13.402;2023-05-07T08:42:18;3.08;;;2.40;;
31298;SDS011;17927;52.350;13.402;2023-05-07T08:44:48;2.60;;;2.30;;
31298;SDS011;17927;52.350;13.402;2023-05-07T08:47:18;3.00;;;2.47;;
31298;SDS011;17927;52.350;13.402;2023-05-07T08:49:44;2.60;;;2.40;;
31298;SDS011;17927;52.350;13.402;2023-05-07T08:52:09;2.55;;;2.30;;
31298;SDS011;17927;52.350;13.402;2023-05-07T08:54:37;2.67;;;2.40;;
31298;SDS011;17927;52.350;13.402;2023-05-07T08:57:03;3.08;;;2.05;;
31298;SDS011;17927;52.350;13.402;2023-05-07T08:59:28;2.42;;;2.33;;
31298;SDS011;17927;52.350;13.402;2023-05-07T09:01:53;2.50;;;2.13;;
31298;SDS011;17927;52.350;13.402;2023-05-07T09:04:18;3.92;;;2.10;;
31298;SDS011;17927;52.350;13.402;2023-05-07T09:06:44;3.28;;;2.40;;
31298;SDS011;17927;52.350;13.402;2023-05-07T09:09:09;2.47;;;2.28;;
31298;SDS011;17927;52.350;13.402;2023-05-07T09:11:38;4.97;;;2.38;;
31298;SDS011;17927;52.350;13.402;2023-05-07T09:14:04;2.40;;;2.20;;
31298;SDS011;17927;52.350;13.402;2023-05-07T09:16:29;4.20;;;2.00;;
31298;SDS011;17927;52.350;13.402;2023-05-07T09:18:57;3.15;;;2.00;;
31298;SDS011;17927;52.350;13.402;2023-05-07T09:21:23;2.05;;;1.65;;
31298;SDS011;17927;52.350;13.402;2023-05-07T09:23:50;1.67;;;1.58;;
31298;SDS011;17927;52.350;13.402;2023-05-07T09:26:17;2.30;;;1.52;;
31298;SDS011;17927;52.350;13.402;2023-05-07T09:28:43;2.55;;;1.45;;
31298;SDS011;17927;52.350;13.402;2023-05-07T09:31:09;1.70;;;1.60;;
31298;SDS011;17927;52.350;13.402;2023-05-07T09:33:36;6.05;;;2.80;;
31298;SDS011;17927;52.350;13.402;2023-05-07T09:36:02;1.65;;;1.55;;
31298;SDS011;17927;52.350;13.402;2023-05-07T09:38:28;2.05;;;1.52;;
31298;SDS011;17927;52.350;13.402;2023-05-07T09:41:07;1.60;;;1.50;;
31298;SDS011;17927;52.350;13.402;2023-05-07T09:43:34;3.53;;;1.83;;
31298;SDS011;17927;52.350;13.402;2023-05-07T09:46:02;2.20;;;1.50;;
31298;SDS011;17927;52.350;13.402;2023-05-07T09:48:32;1.50;;;1.40;;
31298;SDS011;17927;52.350;13.402;2023-05-07T09:51:02;1.88;;;1.77;;
31298;SDS011;17927;52.350;13.402;2023-05-07T09:53:31;1.60;;;1.50;;
31298;SDS011;17927;52.350;13.402;2023-05-07T09:55:58;1.45;;;1.35;;
31298;SDS011;17927;52.350;13.402;2023-05-07T09:58:24;1.50;;;1.40;;
31298;SDS011;17927;52.350;13.402;2023-05-07T10:00:51;1.48;;;1.38;;
31298;SDS011;17927;52.350;13.402;2023-05-07T10:03:17;1.23;;;1.23;;
31298;SDS011;17927;52.350;13.402;2023-05-07T10:05:44;1.48;;;1.38;;
31298;SDS011;17927;52.350;13.402;2023-05-07T10:08:11;1.45;;;1.35;;
31298;SDS011;17927;52.350;13.402;2023-05-07T10:10:36;1.40;;;1.30;;
31298;SDS011;17927;52.350;13.402;2023-05-07T10:13:02;1.10;;;1.10;;
31298;SDS011;17927;52.350;13.402;2023-05-07T10:15:30;2.00;;;1.38;;
31298;SDS011;17927;52.350;13.402;2023-05-07T10:17:56;1.17;;;1.17;;
31298;SDS011;17927;52.350;13.402;2023-05-07T10:20:22;2.72;;;1.30;;
31298;SDS011;17927;52.350;13.402;2023-05-07T10:22:48;2.92;;;1.40;;
31298;SDS011;17927;52.350;13.402;2023-05-07T10:25:16;1.70;;;1.60;;
31298;SDS011;17927;52.350;13.402;2023-05-07T10:27:46;3.13;;;1.42;;
31298;SDS011;17927;52.350;13.402;2023-05-07T10:33:04;1.33;;;1.33;;
31298;SDS011;17927;52.350;13.402;2023-05-07T10:35:44;1.48;;;1.10;;
31298;SDS011;17927;52.350;13.402;2023-05-07T10:38:11;2.60;;;1.40;;
31298;SDS011;17927;52.350;13.402;2023-05-07T10:40:37;3.67;;;1.55;;
31298;SDS011;17927;52.350;13.402;2023-05-07T10:43:03;1.50;;;1.42;;
31298;SDS011;17927;52.350;13.402;2023-05-07T10:45:32;1.73;;;1.20;;
31298;SDS011;17927;52.350;13.402;2023-05-07T10:48:11;3.10;;;1.10;;
31298;SDS011;17927;52.350;13.402;2023-05-07T10:50:40;1.75;;;1.52;;
31298;SDS011;17927;52.350;13.402;2023-05-07T10:55:41;1.35;;;1.25;;
31298;SDS011;17927;52.350;13.402;2023-05-07T10:58:22;1.77;;;1.60;;
31298;SDS011;17927;52.350;13.402;2023-05-07T11:00:50;1.48;;;1.38;;
31298;SDS011;17927;52.350;13.402;2023-05-07T11:03:20;1.70;;;1.25;;
31298;SDS011;17927;52.350;13.402;2023-05-07T11:05:47;2.42;;;1.45;;
31298;SDS011;17927;52.350;13.402;2023-05-07T11:08:13;1.80;;;1.50;;
31298;SDS011;17927;52.350;13.402;2023-05-07T11:10:51;2.35;;;1.50;;
31298;SDS011;17927;52.350;13.402;2023-05-07T11:16:16;1.60;;;1.50;;
31298;SDS011;17927;52.350;13.402;2023-05-07T11:18:46;1.55;;;1.42;;
31298;SDS011;17927;52.350;13.402;2023-05-07T11:21:12;1.25;;;1.25;;
31298;SDS011;17927;52.350;13.402;2023-05-07T11:26:06;1.73;;;1.38;;
31298;SDS011;17927;52.350;13.402;2023-05-07T11:28:39;1.77;;;1.60;;
31298;SDS011;17927;52.350;13.402;2023-05-07T11:31:05;1.77;;;1.48;;
31298;SDS011;17927;52.350;13.402;2023-05-07T11:33:31;1.63;;;1.52;;
31298;SDS011;17927;52.350;13.402;2023-05-07T11:35:57;7.85;;;1.70;;
31298;SDS011;17927;52.350;13.402;2023-05-07T11:38:24;0.90;;;0.90;;
31298;SDS011;17927;52.350;13.402;2023-05-07T11:40:50;2.35;;;1.35;;
31298;SDS011;17927;52.350;13.402;2023-05-07T11:43:15;1.38;;;1.27;;
31298;SDS011;17927;52.350;13.402;2023-05-07T11:45:41;1.90;;;1.80;;
31298;SDS011;17927;52.350;13.402;2023-05-07T11:48:06;1.02;;;1.02;;
31298;SDS011;17927;52.350;13.402;2023-05-07T11:50:31;1.25;;;1.15;;
31298;SDS011;17927;52.350;13.402;2023-05-07T11:52:56;1.58;;;1.48;;
31298;SDS011;17927;52.350;13.402;2023-05-07T11:55:23;3.00;;;1.30;;
31298;SDS011;17927;52.350;13.402;2023-05-07T11:57:49;1.25;;;1.25;;
31298;SDS011;17927;52.350;13.402;2023-05-07T12:00:15;1.40;;;1.30;;
31298;SDS011;17927;52.350;13.402;2023-05-07T12:02:41;1.30;;;1.17;;
31298;SDS011;17927;52.350;13.402;2023-05-07T12:05:07;1.17;;;1.17;;
31298;SDS011;17927;52.350;13.402;2023-05-07T12:07:35;1.95;;;1.15;;
31298;SDS011;17927;52.350;13.402;2023-05-07T12:10:04;1.58;;;1.48;;
31298;SDS011;17927;52.350;13.402;2023-05-07T12:12:30;2.15;;;1.60;;
31298;SDS011;17927;52.350;13.402;2023-05-07T12:14:56;2.47;;;2.00;;
31298;SDS011;17927;52.350;13.402;2023-05-07T12:17:21;1.50;;;1.40;;
31298;SDS011;17927;52.350;13.402;2023-05-07T12:19:46;1.40;;;1.30;;
31298;SDS011;17927;52.350;13.402;2023-05-07T12:22:12;1.55;;;1.30;;
31298;SDS011;17927;52.350;13.402;2023-05-07T12:24:47;1.67;;;1.35;;
31298;SDS011;17927;52.350;13.402;2023-05-07T12:27:15;1.30;;;1.20;;
31298;SDS011;17927;52.350;13.402;2023-05-07T12:29:47;1.48;;;1.35;;
31298;SDS011;17927;52.350;13.402;2023-05-07T12:32:14;1.45;;;1.35;;
31298;SDS011;17927;52.350;13.402;2023-05-07T12:34:40;1.98;;;1.40;;
31298;SDS011;17927;52.350;13.402;2023-05-07T12:37:06;2.15;;;1.15;;
31298;SDS011;17927;52.350;13.402;2023-05-07T12:39:31;4.20;;;1.05;;
31298;SDS011;17927;52.350;13.402;2023-05-07T12:41:58;1.98;;;1.45;;
31298;SDS011;17927;52.350;13.402;2023-05-07T12:44:25;1.30;;;1.20;;
31298;SDS011;17927;52.350;13.402;2023-05-07T12:46:54;2.17;;;1.27;;
31298;SDS011;17927;52.350;13.402;2023-05-07T12:49:19;1.52;;;1.42;;
31298;SDS011;17927;52.350;13.402;2023-05-07T12:51:46;1.35;;;1.17;;
31298;SDS011;17927;52.350;13.402;2023-05-07T12:54:12;2.00;;;1.40;;
31298;SDS011;17927;52.350;13.402;2023-05-07T12:56:37;1.25;;;1.15;;
31298;SDS011;17927;52.350;13.402;2023-05-07T12:59:05;1.05;;;0.98;;
31298;SDS011;17927;52.350;13.402;2023-05-07T13:01:30;4.22;;;1.05;;
31298;SDS011;17927;52.350;13.402;2023-05-07T13:03:57;1.45;;;1.35;;
31298;SDS011;17927;52.350;13.402;2023-05-07T13:06:25;3.22;;;1.23;;
31298;SDS011;17927;52.350;13.402;2023-05-07T13:08:51;1.60;;;1.50;;
31298;SDS011;17927;52.350;13.402;2023-05-07T13:11:16;1.73;;;1.30;;
31298;SDS011;17927;52.350;13.402;2023-05-07T13:13:41;2.00;;;1.73;;
31298;SDS011;17927;52.350;13.402;2023-05-07T13:16:07;1.40;;;1.30;;
31298;SDS011;17927;52.350;13.402;2023-05-07T13:18:34;1.88;;;1.40;;
31298;SDS011;17927;52.350;13.402;2023-05-07T13:21:00;5.20;;;2.08;;
31298;SDS011;17927;52.350;13.402;2023-05-07T13:23:26;0.98;;;0.95;;
31298;SDS011;17927;52.350;13.402;2023-05-07T13:25:51;1.20;;;1.10;;
31298;SDS011;17927;52.350;13.402;2023-05-07T13:28:20;1.23;;;1.05;;
31298;SDS011;17927;52.350;13.402;2023-05-07T13:30:46;2.47;;;0.90;;
31298;SDS011;17927;52.350;13.402;2023-05-07T13:33:11;2.55;;;1.63;;
31298;SDS011;17927;52.350;13.402;2023-05-07T13:35:37;1.10;;;1.00;;
31298;SDS011;17927;52.350;13.402;2023-05-07T13:38:02;2.40;;;2.20;;
31298;SDS011;17927;52.350;13.402;2023-05-07T13:40:28;1.70;;;1.60;;
31298;SDS011;17927;52.350;13.402;2023-05-07T13:42:53;1.70;;;1.60;;
31298;SDS011;17927;52.350;13.402;2023-05-07T13:45:18;2.22;;;1.35;;
31298;SDS011;17927;52.350;13.402;2023-05-07T13:47:45;3.63;;;1.25;;
31298;SDS011;17927;52.350;13.402;2023-05-07T13:50:11;2.88;;;1.15;;
31298;SDS011;17927;52.350;13.402;2023-05-07T13:52:38;1.00;;;0.90;;
31298;SDS011;17927;52.350;13.402;2023-05-07T13:55:05;0.98;;;0.98;;
31298;SDS011;17927;52.350;13.402;2023-05-07T13:57:32;0.88;;;0.88;;
31298;SDS011;17927;52.350;13.402;2023-05-07T13:59:57;0.88;;;0.88;;
31298;SDS011;17927;52.350;13.402;2023-05-07T14:02:22;0.85;;;0.85;;
31298;SDS011;17927;52.350;13.402;2023-05-07T14:04:47;1.20;;;1.20;;
31298;SDS011;17927;52.350;13.402;2023-05-07T14:07:13;1.13;;;0.95;;
31298;SDS011;17927;52.350;13.402;2023-05-07T14:09:38;1.08;;;1.02;;
31298;SDS011;17927;52.350;13.402;2023-05-07T14:12:03;1.33;;;1.30;;
31298;SDS011;17927;52.350;13.402;2023-05-07T14:14:29;0.80;;;0.80;;
31298;SDS011;17927;52.350;13.402;2023-05-07T14:16:54;1.08;;;0.90;;
31298;SDS011;17927;52.350;13.402;2023-05-07T14:19:20;1.10;;;1.10;;
31298;SDS011;17927;52.350;13.402;2023-05-07T14:21:47;1.08;;;1.08;;
31298;SDS011;17927;52.350;13.402;2023-05-07T14:24:12;1.77;;;1.35;;
31298;SDS011;17927;52.350;13.402;2023-05-07T14:26:38;1.25;;;1.13;;
31298;SDS011;17927;52.350;13.402;2023-05-07T14:29:03;1.63;;;1.40;;
31298;SDS011;17927;52.350;13.402;2023-05-07T14:31:28;1.15;;;1.05;;
31298;SDS011;17927;52.350;13.402;2023-05-07T14:33:53;1.00;;;1.00;;
31298;SDS011;17927;52.350;13.402;2023-05-07T14:36:19;2.40;;;2.30;;
31298;SDS011;17927;52.350;13.402;2023-05-07T14:38:50;3.72;;;1.48;;
31298;SDS011;17927;52.350;13.402;2023-05-07T14:41:16;2.03;;;1.58;;